createdAt,value
2018-07-24T00:00:52.047Z,1011.67
2018-07-24T00:02:01.731Z,1011.67
2018-07-24T00:03:10.622Z,1011.67
2018-07-24T00:04:20.015Z,1011.68
2018-07-24T00:05:29.418Z,1011.66
2018-07-24T00:06:38.827Z,1011.61
2018-07-24T00:07:48.489Z,1011.63
2018-07-24T00:08:57.897Z,1011.63
2018-07-24T00:10:07.309Z,1011.62
2018-07-24T00:11:17.264Z,1011.65
2018-07-24T00:12:26.946Z,1011.63
2018-07-24T00:13:36.096Z,1011.64
2018-07-24T00:14:45.528Z,1011.65
2018-07-24T00:15:54.671Z,1011.63
2018-07-24T00:17:03.827Z,1011.68
2018-07-24T00:18:12.714Z,1011.62
2018-07-24T00:19:22.394Z,1011.62
2018-07-24T00:20:31.816Z,1011.62
2018-07-24T00:21:41.252Z,1011.64
2018-07-24T00:22:50.682Z,1011.62
2018-07-24T00:23:59.844Z,1011.62
2018-07-24T00:25:09.249Z,1011.62
2018-07-24T00:26:18.391Z,1011.64
2018-07-24T00:27:28.055Z,1011.65
2018-07-24T00:28:37.216Z,1011.65
2018-07-24T00:29:46.366Z,1011.65
2018-07-24T00:30:55.515Z,1011.68
2018-07-24T00:32:05.252Z,1011.63
2018-07-24T00:33:15.133Z,1011.62
2018-07-24T00:34:24.792Z,1011.63
2018-07-24T00:35:34.220Z,1011.62
2018-07-24T00:36:43.371Z,1011.57
2018-07-24T00:37:53.034Z,1011.6
2018-07-24T00:39:02.696Z,1011.55
2018-07-24T00:40:12.116Z,1011.56
2018-07-24T00:41:21.267Z,1011.6
2018-07-24T00:42:30.432Z,1011.57
2018-07-24T00:43:39.579Z,1011.55
2018-07-24T00:44:49.238Z,1011.56
2018-07-24T00:45:58.899Z,1011.55
2018-07-24T00:47:08.359Z,1011.56
2018-07-24T00:48:17.778Z,1011.49
2018-07-24T00:49:27.178Z,1011.5
2018-07-24T00:50:36.334Z,1011.5
2018-07-24T00:51:45.504Z,1011.47
2018-07-24T00:52:55.169Z,1011.47
2018-07-24T00:54:04.611Z,1011.47
2018-07-24T00:55:14.904Z,1011.45
2018-07-24T00:56:24.313Z,1011.48
2018-07-24T00:57:34.222Z,1011.5
2018-07-24T00:58:42.915Z,1011.46
2018-07-24T00:59:52.324Z,1011.46
2018-07-24T01:01:01.493Z,1011.48
2018-07-24T01:02:11.159Z,1011.48
2018-07-24T01:03:20.294Z,1011.47
2018-07-24T01:04:29.955Z,1011.47
2018-07-24T01:05:39.632Z,1011.47
2018-07-24T01:06:48.783Z,1011.47
2018-07-24T01:07:58.711Z,1011.44
2018-07-24T01:09:07.599Z,1011.44
2018-07-24T01:10:17.011Z,1011.46
2018-07-24T01:11:25.900Z,1011.39
2018-07-24T01:12:35.581Z,1011.41
2018-07-24T01:13:45.252Z,1011.4
2018-07-24T01:14:54.416Z,1011.42
2018-07-24T01:16:03.308Z,1011.41
2018-07-24T01:17:12.984Z,1011.4
2018-07-24T01:18:22.663Z,1011.43
2018-07-24T01:19:32.069Z,1011.36
2018-07-24T01:20:41.747Z,1011.39
2018-07-24T01:21:51.679Z,1011.37
2018-07-24T01:23:00.835Z,1011.35
2018-07-24T01:24:10.497Z,1011.41
2018-07-24T01:25:19.638Z,1011.39
2018-07-24T01:26:29.306Z,1011.33
2018-07-24T01:27:38.451Z,1011.39
2018-07-24T01:28:48.105Z,1011.35
2018-07-24T01:29:57.017Z,1011.35
2018-07-24T01:31:06.456Z,1011.35
2018-07-24T01:32:15.350Z,1011.36
2018-07-24T01:33:24.798Z,1011.3
2018-07-24T01:34:34.205Z,1011.33
2018-07-24T01:35:43.352Z,1011.32
2018-07-24T01:36:52.765Z,1011.31
2018-07-24T01:38:02.431Z,1011.35
2018-07-24T01:39:11.591Z,1011.33
2018-07-24T01:40:21.243Z,1011.27
2018-07-24T01:41:30.395Z,1011.3
2018-07-24T01:42:39.815Z,1011.32
2018-07-24T01:43:48.963Z,1011.29
2018-07-24T01:44:58.367Z,1011.28
2018-07-24T01:46:07.512Z,1011.27
2018-07-24T01:47:16.150Z,1011.28
2018-07-24T01:48:25.810Z,1011.28
2018-07-24T01:49:34.979Z,1011.29
2018-07-24T01:50:44.385Z,1011.29
2018-07-24T01:51:54.040Z,1011.26
2018-07-24T01:53:03.212Z,1011.26
2018-07-24T01:54:12.888Z,1011.26
2018-07-24T01:55:22.294Z,1011.29
2018-07-24T01:56:31.698Z,1011.26
2018-07-24T01:57:41.112Z,1011.25
2018-07-24T01:58:50.256Z,1011.22
2018-07-24T01:59:59.697Z,1011.23
2018-07-24T02:01:09.094Z,1011.21
2018-07-24T02:02:18.250Z,1011.2
2018-07-24T02:03:27.145Z,1011.21
2018-07-24T02:04:36.580Z,1011.18
2018-07-24T02:05:45.720Z,1011.24
2018-07-24T02:06:55.388Z,1011.21
2018-07-24T02:08:04.289Z,1011.19
2018-07-24T02:09:14.213Z,1011.19
2018-07-24T02:10:23.623Z,1011.2
2018-07-24T02:11:33.027Z,1011.2
2018-07-24T02:12:42.193Z,1011.2
2018-07-24T02:13:51.451Z,1011.21
2018-07-24T02:15:00.857Z,1011.2
2018-07-24T02:16:10.523Z,1011.21
2018-07-24T02:17:20.181Z,1011.15
2018-07-24T02:18:29.079Z,1011.19
2018-07-24T02:19:38.252Z,1011.2
2018-07-24T02:20:47.654Z,1011.16
2018-07-24T02:21:56.798Z,1011.17
2018-07-24T02:23:05.950Z,1011.16
2018-07-24T02:24:14.852Z,1011.17
2018-07-24T02:25:24.504Z,1011.18
2018-07-24T02:26:34.172Z,1011.18
2018-07-24T02:27:43.331Z,1011.18
2018-07-24T02:28:52.744Z,1011.15
2018-07-24T02:30:02.157Z,1011.14
2018-07-24T02:31:11.606Z,1011.16
2018-07-24T02:32:21.022Z,1011.14
2018-07-24T02:33:30.690Z,1011.12
2018-07-24T02:34:40.101Z,1011.14
2018-07-24T02:35:49.778Z,1011.11
2018-07-24T02:36:59.447Z,1011.14
2018-07-24T02:38:08.338Z,1011.13
2018-07-24T02:39:17.482Z,1011.15
2018-07-24T02:40:27.163Z,1011.14
2018-07-24T02:41:36.828Z,1011.16
2018-07-24T02:42:46.236Z,1011.1
2018-07-24T02:43:55.158Z,1011.09
2018-07-24T02:45:04.557Z,1011.1
2018-07-24T02:46:14.226Z,1011.14
2018-07-24T02:47:23.889Z,1011.11
2018-07-24T02:48:32.785Z,1011.13
2018-07-24T02:49:42.752Z,1011.12
2018-07-24T02:50:52.417Z,1011.11
2018-07-24T02:52:02.097Z,1011.1
2018-07-24T02:53:11.791Z,1011.11
2018-07-24T02:54:21.471Z,1011.11
2018-07-24T02:55:31.412Z,1011.14
2018-07-24T02:56:41.078Z,1011.17
2018-07-24T02:57:50.770Z,1011.13
2018-07-24T02:58:59.938Z,1011.18
2018-07-24T03:00:09.359Z,1011.22
2018-07-24T03:01:18.510Z,1011.19
2018-07-24T03:02:27.654Z,1011.19
2018-07-24T03:03:37.581Z,1011.19
2018-07-24T03:04:47.253Z,1011.18
2018-07-24T03:05:56.427Z,1011.14
2018-07-24T03:07:06.085Z,1011.18
2018-07-24T03:08:15.750Z,1011.15
2018-07-24T03:09:24.907Z,1011.18
2018-07-24T03:10:34.580Z,1011.17
2018-07-24T03:11:43.754Z,1011.14
2018-07-24T03:12:53.754Z,1011.13
2018-07-24T03:14:03.440Z,1011.15
2018-07-24T03:15:12.851Z,1011.11
2018-07-24T03:16:22.338Z,1011.15
2018-07-24T03:17:31.843Z,1011.13
2018-07-24T03:18:40.996Z,1011.13
2018-07-24T03:19:50.693Z,1011.1
2018-07-24T03:20:59.841Z,1011.14
2018-07-24T03:22:08.744Z,1011.11
2018-07-24T03:23:18.147Z,1011.11
2018-07-24T03:24:27.805Z,1011.09
2018-07-24T03:25:37.232Z,1011.11
2018-07-24T03:26:47.119Z,1011.09
2018-07-24T03:27:56.899Z,1011.08
2018-07-24T03:29:05.817Z,1011.09
2018-07-24T03:30:15.329Z,1011.1
2018-07-24T03:31:24.727Z,1011.09
2018-07-24T03:32:34.411Z,1011.1
2018-07-24T03:33:43.565Z,1011.09
2018-07-24T03:34:53.493Z,1011.1
2018-07-24T03:36:03.160Z,1011.09
2018-07-24T03:37:12.840Z,1011.08
2018-07-24T03:38:22.492Z,1011.06
2018-07-24T03:39:32.462Z,1011.08
2018-07-24T03:40:42.031Z,1011.09
2018-07-24T03:41:51.702Z,1011.07
2018-07-24T03:43:01.377Z,1011.07
2018-07-24T03:44:10.534Z,1011.08
2018-07-24T03:45:20.205Z,1011.09
2018-07-24T03:46:29.353Z,1011.12
2018-07-24T03:47:39.010Z,1011.1
2018-07-24T03:48:48.144Z,1011.11
2018-07-24T03:49:56.782Z,1011.09
2018-07-24T03:51:06.446Z,1011.13
2018-07-24T03:52:16.388Z,1011.12
2018-07-24T03:53:25.276Z,1011.09
2018-07-24T03:54:34.676Z,1011.09
2018-07-24T03:55:44.078Z,1011.1
2018-07-24T03:56:53.211Z,1011.11
2018-07-24T03:58:02.619Z,1011.1
2018-07-24T03:59:12.281Z,1011.15
2018-07-24T04:00:21.425Z,1011.1
2018-07-24T04:01:31.091Z,1011.15
2018-07-24T04:02:41.032Z,1011.15
2018-07-24T04:03:50.460Z,1011.15
2018-07-24T04:05:00.547Z,1011.17
2018-07-24T04:06:09.956Z,1011.18
2018-07-24T04:07:19.360Z,1011.17
2018-07-24T04:08:28.768Z,1011.15
2018-07-24T04:09:38.165Z,1011.17
2018-07-24T04:10:47.322Z,1011.17
2018-07-24T04:11:56.997Z,1011.14
2018-07-24T04:13:06.652Z,1011.2
2018-07-24T04:14:16.057Z,1011.19
2018-07-24T04:15:25.213Z,1011.16
2018-07-24T04:16:34.391Z,1011.18
2018-07-24T04:17:43.792Z,1011.19
2018-07-24T04:18:53.202Z,1011.2
2018-07-24T04:20:02.656Z,1011.21
2018-07-24T04:21:12.084Z,1011.22
2018-07-24T04:22:20.992Z,1011.21
2018-07-24T04:23:30.140Z,1011.18
2018-07-24T04:24:39.553Z,1011.18
2018-07-24T04:25:48.692Z,1011.19
2018-07-24T04:26:58.348Z,1011.16
2018-07-24T04:28:07.496Z,1011.16
2018-07-24T04:29:17.430Z,1011.18
2018-07-24T04:30:26.323Z,1011.14
2018-07-24T04:31:36.052Z,1011.12
2018-07-24T04:32:45.714Z,1011.14
2018-07-24T04:33:54.858Z,1011.13
2018-07-24T04:35:04.534Z,1011.13
2018-07-24T04:36:13.431Z,1011.09
2018-07-24T04:37:22.845Z,1011.09
2018-07-24T04:38:32.264Z,1011.08
2018-07-24T04:39:41.682Z,1011.09
2018-07-24T04:40:51.810Z,1011.1
2018-07-24T04:42:01.507Z,1011.09
2018-07-24T04:43:10.929Z,1011.09
2018-07-24T04:44:19.823Z,1011.07
2018-07-24T04:45:29.232Z,1011.07
2018-07-24T04:46:38.643Z,1011.08
2018-07-24T04:47:48.060Z,1011.06
2018-07-24T04:48:57.458Z,1011.1
2018-07-24T04:50:07.136Z,1011.07
2018-07-24T04:51:16.019Z,1011.09
2018-07-24T04:52:25.442Z,1011.08
2018-07-24T04:53:34.594Z,1011.08
2018-07-24T04:54:44.266Z,1011.08
2018-07-24T04:55:54.194Z,1011.08
2018-07-24T04:57:03.603Z,1011.08
2018-07-24T04:58:12.761Z,1011.1
2018-07-24T04:59:22.429Z,1011.09
2018-07-24T05:00:32.094Z,1011.1
2018-07-24T05:01:40.981Z,1011.09
2018-07-24T05:02:50.398Z,1011.08
2018-07-24T05:03:59.285Z,1011.1
2018-07-24T05:05:08.433Z,1011.07
2018-07-24T05:06:18.109Z,1011.07
2018-07-24T05:07:27.512Z,1011.13
2018-07-24T05:08:37.181Z,1011.12
2018-07-24T05:09:46.337Z,1011.13
2018-07-24T05:10:55.483Z,1011.1
2018-07-24T05:12:04.903Z,1011.13
2018-07-24T05:13:14.069Z,1011.12
2018-07-24T05:14:23.728Z,1011.13
2018-07-24T05:15:32.880Z,1011.12
2018-07-24T05:16:42.101Z,1011.19
2018-07-24T05:17:52.425Z,1011.14
2018-07-24T05:19:02.090Z,1011.17
2018-07-24T05:20:11.238Z,1011.16
2018-07-24T05:21:20.651Z,1011.15
2018-07-24T05:22:30.060Z,1011.13
2018-07-24T05:23:39.226Z,1011.14
2018-07-24T05:24:49.060Z,1011.14
2018-07-24T05:25:58.378Z,1011.08
2018-07-24T05:27:08.098Z,1011.12
2018-07-24T05:28:17.248Z,1011.16
2018-07-24T05:29:26.914Z,1011.14
2018-07-24T05:30:35.795Z,1011.12
2018-07-24T05:31:45.450Z,1011.13
2018-07-24T05:32:54.601Z,1011.13
2018-07-24T05:34:04.056Z,1011.16
2018-07-24T05:35:13.484Z,1011.16
2018-07-24T05:36:22.895Z,1011.14
2018-07-24T05:37:32.310Z,1011.17
2018-07-24T05:38:41.478Z,1011.16
2018-07-24T05:39:51.753Z,1011.15
2018-07-24T05:41:01.167Z,1011.13
2018-07-24T05:42:11.088Z,1011.14
2018-07-24T05:43:20.760Z,1011.12
2018-07-24T05:44:29.908Z,1011.14
2018-07-24T05:45:39.060Z,1011.12
2018-07-24T05:46:48.727Z,1011.17
2018-07-24T05:47:58.137Z,1011.16
2018-07-24T05:49:07.304Z,1011.17
2018-07-24T05:50:16.453Z,1011.18
2018-07-24T05:51:25.858Z,1011.14
2018-07-24T05:52:35.262Z,1011.18
2018-07-24T05:53:44.667Z,1011.16
2018-07-24T05:54:54.072Z,1011.16
2018-07-24T05:56:03.860Z,1011.16
2018-07-24T05:57:13.263Z,1011.14
2018-07-24T05:58:22.410Z,1011.14
2018-07-24T05:59:31.830Z,1011.16
2018-07-24T06:00:41.752Z,1011.37
2018-07-24T06:01:51.417Z,1011.11
2018-07-24T06:03:01.341Z,1011.15
2018-07-24T06:04:10.746Z,1011.13
2018-07-24T06:05:20.428Z,1011.17
2018-07-24T06:06:29.832Z,1011.14
2018-07-24T06:07:39.029Z,1011.14
2018-07-24T06:08:47.924Z,1011.14
2018-07-24T06:09:57.093Z,1011.12
2018-07-24T06:11:06.509Z,1011.13
2018-07-24T06:12:15.665Z,1011.1
2018-07-24T06:13:24.818Z,1011.1
2018-07-24T06:14:33.975Z,1011.08
2018-07-24T06:15:43.895Z,1011.07
2018-07-24T06:16:53.314Z,1011.1
2018-07-24T06:18:02.598Z,1011.1
2018-07-24T06:19:11.773Z,1011.14
2018-07-24T06:20:21.215Z,1011.15
2018-07-24T06:21:31.193Z,1011.13
2018-07-24T06:22:40.672Z,1011.14
2018-07-24T06:23:50.381Z,1011.14
2018-07-24T06:24:59.792Z,1011.15
2018-07-24T06:26:09.221Z,1011.13
2018-07-24T06:27:19.158Z,1011.12
2018-07-24T06:28:28.321Z,1011.13
2018-07-24T06:29:37.219Z,1011.08
2018-07-24T06:30:46.896Z,1011.12
2018-07-24T06:31:56.091Z,1011.1
2018-07-24T06:33:06.482Z,1011.13
2018-07-24T06:34:15.671Z,1011.14
2018-07-24T06:35:24.816Z,1011.11
2018-07-24T06:36:34.231Z,1011.13
2018-07-24T06:37:43.650Z,1011.12
2018-07-24T06:38:53.071Z,1011.13
2018-07-24T06:40:02.733Z,1011.14
2018-07-24T06:41:12.167Z,1011.08
2018-07-24T06:42:21.833Z,1011.12
2018-07-24T06:43:31.265Z,1011.14
2018-07-24T06:44:41.036Z,1011.17
2018-07-24T06:45:50.639Z,1011.13
2018-07-24T06:47:00.040Z,1011.17
2018-07-24T06:48:09.215Z,1011.15
2018-07-24T06:49:18.866Z,1011.14
2018-07-24T06:50:28.021Z,1011.14
2018-07-24T06:51:38.045Z,1011.18
2018-07-24T06:52:47.559Z,1011.19
2018-07-24T06:53:56.763Z,1011.19
2018-07-24T06:55:06.182Z,1011.17
2018-07-24T06:56:15.692Z,1011.22
2018-07-24T06:57:24.589Z,1011.18
2018-07-24T06:58:34.010Z,1011.18
2018-07-24T06:59:43.932Z,1011.14
2018-07-24T07:00:53.096Z,1011.22
2018-07-24T07:02:02.857Z,1011.17
2018-07-24T07:03:13.282Z,1011.17
2018-07-24T07:04:23.289Z,1011.15
2018-07-24T07:05:32.447Z,1011.14
2018-07-24T07:06:42.124Z,1011.15
2018-07-24T07:07:51.282Z,1011.14
2018-07-24T07:09:00.438Z,1011.13
2018-07-24T07:10:09.623Z,1011.11
2018-07-24T07:11:19.479Z,1011.11
2018-07-24T07:12:29.148Z,1011.06
2018-07-24T07:13:38.555Z,1011.05
2018-07-24T07:14:47.972Z,1011.04
2018-07-24T07:15:57.120Z,1011.01
2018-07-24T07:17:06.886Z,1011.04
2018-07-24T07:18:15.778Z,1011.03
2018-07-24T07:19:25.220Z,1011.03
2018-07-24T07:20:35.187Z,1011.05
2018-07-24T07:21:44.383Z,1011.05
2018-07-24T07:22:54.323Z,1011.05
2018-07-24T07:24:04.004Z,1011.05
2018-07-24T07:25:13.691Z,1011
2018-07-24T07:26:23.126Z,1011.05
2018-07-24T07:27:32.326Z,1011.03
2018-07-24T07:28:41.749Z,1011.06
2018-07-24T07:29:51.408Z,1011.05
2018-07-24T07:31:00.052Z,1011.04
2018-07-24T07:32:10.008Z,1011.01
2018-07-24T07:33:19.901Z,1011
2018-07-24T07:34:29.327Z,1011.03
2018-07-24T07:35:38.509Z,1010.97
2018-07-24T07:36:47.655Z,1010.99
2018-07-24T07:37:57.310Z,1011
2018-07-24T07:39:06.785Z,1011
2018-07-24T07:40:16.656Z,1011
2018-07-24T07:41:25.862Z,1010.96
2018-07-24T07:42:35.568Z,1010.95
2018-07-24T07:43:45.227Z,1010.94
2018-07-24T07:44:53.905Z,1010.94
2018-07-24T07:46:03.869Z,1010.96
2018-07-24T07:47:13.790Z,1010.96
2018-07-24T07:48:22.932Z,1010.93
2018-07-24T07:49:32.394Z,1010.92
2018-07-24T07:50:41.563Z,1010.95
2018-07-24T07:51:50.987Z,1010.91
2018-07-24T07:53:00.657Z,1010.91
2018-07-24T07:54:10.110Z,1010.96
2018-07-24T07:55:19.022Z,1010.88
2018-07-24T07:56:28.696Z,1010.91
2018-07-24T07:57:37.848Z,1010.86
2018-07-24T07:58:46.817Z,1010.88
2018-07-24T07:59:56.526Z,1010.88
2018-07-24T08:01:06.255Z,1010.85
2018-07-24T08:02:15.153Z,1010.83
2018-07-24T08:03:25.021Z,1010.87
2018-07-24T08:04:34.178Z,1010.9
2018-07-24T08:05:43.369Z,1010.86
2018-07-24T08:06:52.539Z,1010.83
2018-07-24T08:08:01.779Z,1010.84
2018-07-24T08:09:11.207Z,1010.79
2018-07-24T08:10:20.619Z,1010.8
2018-07-24T08:11:30.098Z,1010.74
2018-07-24T08:12:39.027Z,1010.76
2018-07-24T08:13:48.178Z,1010.77
2018-07-24T08:14:57.073Z,1010.76
2018-07-24T08:16:06.317Z,1010.76
2018-07-24T08:17:16.264Z,1010.78
2018-07-24T08:18:25.174Z,1010.76
2018-07-24T08:19:34.593Z,1010.75
2018-07-24T08:20:44.300Z,1010.78
2018-07-24T08:21:53.741Z,1010.75
2018-07-24T08:23:03.246Z,1010.75
2018-07-24T08:24:12.410Z,1010.75
2018-07-24T08:25:22.081Z,1010.7
2018-07-24T08:26:30.976Z,1010.73
2018-07-24T08:27:40.674Z,1010.75
2018-07-24T08:28:50.897Z,1010.75
2018-07-24T08:30:00.321Z,1010.74
2018-07-24T08:31:10.254Z,1010.74
2018-07-24T08:32:19.400Z,1010.74
2018-07-24T08:33:28.859Z,1010.72
2018-07-24T08:34:38.741Z,1010.73
2018-07-24T08:35:47.695Z,1010.73
2018-07-24T08:36:57.111Z,1010.71
2018-07-24T08:38:06.528Z,1010.73
2018-07-24T08:39:15.928Z,1010.72
2018-07-24T08:40:24.812Z,1010.71
2018-07-24T08:41:33.987Z,1010.73
2018-07-24T08:42:43.140Z,1010.72
2018-07-24T08:43:52.059Z,1010.68
2018-07-24T08:45:01.480Z,1010.66
2018-07-24T08:46:10.675Z,1010.7
2018-07-24T08:47:19.829Z,1010.68
2018-07-24T08:48:28.995Z,1010.66
2018-07-24T08:49:38.397Z,1010.7
2018-07-24T08:50:47.841Z,1010.66
2018-07-24T08:51:56.995Z,1010.69
2018-07-24T08:53:06.675Z,1010.65
2018-07-24T08:54:17.844Z,1010.65
2018-07-24T08:55:29.435Z,1010.67
2018-07-24T08:56:40.771Z,1010.66
2018-07-24T08:57:49.974Z,1010.68
2018-07-24T08:58:59.395Z,1010.65
2018-07-24T09:00:08.549Z,1010.66
2018-07-24T09:01:17.997Z,1010.66
2018-07-24T09:02:27.482Z,1010.66
2018-07-24T09:03:36.556Z,1010.64
2018-07-24T09:04:46.494Z,1010.65
2018-07-24T09:05:55.944Z,1010.61
2018-07-24T09:07:05.126Z,1010.58
2018-07-24T09:08:14.031Z,1010.57
2018-07-24T09:09:23.967Z,1010.57
2018-07-24T09:10:33.365Z,1010.57
2018-07-24T09:11:42.532Z,1010.56
2018-07-24T09:12:51.691Z,1010.55
2018-07-24T09:14:01.097Z,1010.57
2018-07-24T09:15:09.985Z,1010.58
2018-07-24T09:16:19.922Z,1010.57
2018-07-24T09:17:29.596Z,1010.57
2018-07-24T09:18:39.005Z,1010.59
2018-07-24T09:19:48.490Z,1010.59
2018-07-24T09:20:57.929Z,1010.56
2018-07-24T09:22:06.912Z,1010.57
2018-07-24T09:23:16.384Z,1010.58
2018-07-24T09:24:25.788Z,1010.56
2018-07-24T09:25:35.557Z,1010.6
2018-07-24T09:26:44.980Z,1010.61
2018-07-24T09:27:54.662Z,1010.58
2018-07-24T09:29:04.317Z,1010.59
2018-07-24T09:30:13.209Z,1010.59
2018-07-24T09:31:22.627Z,1010.57
2018-07-24T09:32:32.043Z,1010.58
2018-07-24T09:33:41.487Z,1010.56
2018-07-24T09:34:50.893Z,1010.54
2018-07-24T09:36:00.037Z,1010.51
2018-07-24T09:37:09.746Z,1010.52
2018-07-24T09:38:19.176Z,1010.54
2018-07-24T09:39:28.340Z,1010.56
2018-07-24T09:40:37.773Z,1010.51
2018-07-24T09:41:47.454Z,1010.54
2018-07-24T09:42:56.341Z,1010.49
2018-07-24T09:44:05.553Z,1010.5
2018-07-24T09:45:14.991Z,1010.48
2018-07-24T09:46:24.207Z,1010.5
2018-07-24T09:47:33.681Z,1010.5
2018-07-24T09:48:43.355Z,1010.51
2018-07-24T09:49:52.536Z,1010.52
2018-07-24T09:51:01.692Z,1010.56
2018-07-24T09:52:11.427Z,1010.54
2018-07-24T09:53:20.839Z,1010.52
2018-07-24T09:54:30.549Z,1010.49
2018-07-24T09:55:40.479Z,1010.46
2018-07-24T09:56:50.132Z,1010.44
2018-07-24T09:57:59.300Z,1010.44
2018-07-24T09:59:08.452Z,1010.41
2018-07-24T10:00:17.619Z,1010.41
2018-07-24T10:01:26.518Z,1010.38
2018-07-24T10:02:36.186Z,1010.36
2018-07-24T10:03:45.858Z,1010.35
2018-07-24T10:04:54.758Z,1010.32
2018-07-24T10:06:03.910Z,1010.3
2018-07-24T10:07:13.318Z,1010.33
2018-07-24T10:08:22.231Z,1010.24
2018-07-24T10:09:31.382Z,1010.27
2018-07-24T10:10:40.281Z,1010.22
2018-07-24T10:11:49.723Z,1010.22
2018-07-24T10:12:58.776Z,1010.2
2018-07-24T10:14:07.276Z,1010.22
2018-07-24T10:15:16.688Z,1010.21
2018-07-24T10:16:26.112Z,1010.15
2018-07-24T10:17:36.184Z,1010.19
2018-07-24T10:18:45.866Z,1010.13
2018-07-24T10:19:55.358Z,1010.13
2018-07-24T10:21:04.275Z,1010.14
2018-07-24T10:22:13.700Z,1010.1
2018-07-24T10:23:23.958Z,1010.08
2018-07-24T10:24:33.736Z,1010.1
2018-07-24T10:25:42.798Z,1010.06
2018-07-24T10:26:52.482Z,1010.04
2018-07-24T10:28:02.425Z,1010.08
2018-07-24T10:29:11.832Z,1010.11
2018-07-24T10:30:21.515Z,1010.11
2018-07-24T10:31:31.858Z,1010.07
2018-07-24T10:32:41.017Z,1010.05
2018-07-24T10:33:50.945Z,1010.09
2018-07-24T10:35:00.344Z,1010.04
2018-07-24T10:36:09.248Z,1009.99
2018-07-24T10:37:18.133Z,1010.01
2018-07-24T10:38:28.058Z,1009.97
2018-07-24T10:39:37.221Z,1009.97
2018-07-24T10:40:46.392Z,1010
2018-07-24T10:41:55.538Z,1009.95
2018-07-24T10:43:04.693Z,1009.95
2018-07-24T10:44:15.005Z,1009.92
2018-07-24T10:45:24.164Z,1009.94
2018-07-24T10:46:33.052Z,1009.87
2018-07-24T10:47:42.448Z,1009.86
2018-07-24T10:48:51.855Z,1009.87
2018-07-24T10:50:01.253Z,1009.87
2018-07-24T10:51:10.136Z,1009.83
2018-07-24T10:52:20.059Z,1009.83
2018-07-24T10:53:28.944Z,1009.86
2018-07-24T10:54:38.363Z,1009.89
2018-07-24T10:55:48.301Z,1009.84
2018-07-24T10:56:57.457Z,1009.89
2018-07-24T10:58:07.377Z,1009.91
2018-07-24T10:59:16.794Z,1009.89
2018-07-24T11:00:25.966Z,1009.84
2018-07-24T11:01:35.413Z,1009.82
2018-07-24T11:02:45.112Z,1009.79
2018-07-24T11:03:54.275Z,1009.81
2018-07-24T11:05:03.682Z,1009.77
2018-07-24T11:06:12.909Z,1009.78
2018-07-24T11:07:22.311Z,1009.78
2018-07-24T11:08:31.716Z,1009.77
2018-07-24T11:09:41.135Z,1009.75
2018-07-24T11:10:50.944Z,1009.75
2018-07-24T11:12:00.798Z,1009.75
2018-07-24T11:13:09.694Z,1009.68
2018-07-24T11:14:19.513Z,1009.69
2018-07-24T11:15:29.171Z,1009.68
2018-07-24T11:16:38.352Z,1009.64
2018-07-24T11:17:48.202Z,1009.66
2018-07-24T11:18:57.620Z,1009.65
2018-07-24T11:20:07.290Z,1009.68
2018-07-24T11:21:16.955Z,1009.64
2018-07-24T11:22:26.248Z,1009.62
2018-07-24T11:23:35.721Z,1009.62
2018-07-24T11:24:45.445Z,1009.62
2018-07-24T11:25:54.607Z,1009.62
2018-07-24T11:27:03.752Z,1009.62
2018-07-24T11:28:13.467Z,1009.65
2018-07-24T11:29:23.234Z,1009.64
2018-07-24T11:30:33.148Z,1009.62
2018-07-24T11:31:42.309Z,1009.62
2018-07-24T11:32:51.482Z,1009.58
2018-07-24T11:34:01.074Z,1009.54
2018-07-24T11:35:10.511Z,1009.57
2018-07-24T11:36:20.625Z,1009.58
2018-07-24T11:37:30.513Z,1009.56
2018-07-24T11:38:39.705Z,1009.55
2018-07-24T11:39:48.670Z,1009.51
2018-07-24T11:40:57.568Z,1009.5
2018-07-24T11:42:07.534Z,1009.55
2018-07-24T11:43:16.431Z,1009.53
2018-07-24T11:44:25.830Z,1009.52
2018-07-24T11:45:35.776Z,1009.47
2018-07-24T11:46:45.183Z,1009.51
2018-07-24T11:47:54.348Z,1009.51
2018-07-24T11:49:03.250Z,1009.48
2018-07-24T11:50:12.647Z,1009.49
2018-07-24T11:51:21.800Z,1009.53
2018-07-24T11:52:31.063Z,1009.46
2018-07-24T11:53:40.207Z,1009.5
2018-07-24T11:54:49.612Z,1009.52
2018-07-24T11:55:59.035Z,1009.52
2018-07-24T11:57:08.179Z,1009.45
2018-07-24T11:58:17.077Z,1009.47
2018-07-24T11:59:26.479Z,1009.48
2018-07-24T12:00:35.928Z,1009.39
2018-07-24T12:01:45.850Z,1009.38
2018-07-24T12:02:55.274Z,1009.38
2018-07-24T12:04:04.427Z,1009.38
2018-07-24T12:05:13.847Z,1009.37
2018-07-24T12:06:23.003Z,1009.38
2018-07-24T12:07:32.163Z,1009.38
2018-07-24T12:08:41.869Z,1009.37
2018-07-24T12:09:51.548Z,1009.3
2018-07-24T12:11:00.969Z,1009.26
2018-07-24T12:12:10.635Z,1009.24
2018-07-24T12:13:20.300Z,1009.25
2018-07-24T12:14:29.292Z,1009.2
2018-07-24T12:15:39.537Z,1009.23
2018-07-24T12:16:49.197Z,1009.26
2018-07-24T12:17:58.877Z,1009.26
2018-07-24T12:19:08.283Z,1009.2
2018-07-24T12:20:17.433Z,1009.19
2018-07-24T12:21:26.866Z,1009.26
2018-07-24T12:22:36.262Z,1009.15
2018-07-24T12:23:45.926Z,1009.15
2018-07-24T12:24:55.584Z,1009.2
2018-07-24T12:26:05.510Z,1009.17
2018-07-24T12:27:14.965Z,1009.1
2018-07-24T12:28:25.154Z,1009.15
2018-07-24T12:29:34.839Z,1009.12
2018-07-24T12:30:43.998Z,1009.11
2018-07-24T12:31:53.661Z,1009.1
2018-07-24T12:33:02.568Z,1009.13
2018-07-24T12:34:11.989Z,1009.1
2018-07-24T12:35:21.148Z,1009.11
2018-07-24T12:36:30.808Z,1009.12
2018-07-24T12:37:40.479Z,1009.13
2018-07-24T12:38:50.177Z,1009.11
2018-07-24T12:39:59.327Z,1009.13
2018-07-24T12:41:09.005Z,1009.1
2018-07-24T12:42:18.162Z,1009.08
2018-07-24T12:43:27.344Z,1009.09
2018-07-24T12:44:37.171Z,1009.04
2018-07-24T12:45:46.589Z,1009.07
2018-07-24T12:46:55.487Z,1009.04
2018-07-24T12:48:04.383Z,1009.08
2018-07-24T12:49:13.525Z,1009.02
2018-07-24T12:50:22.934Z,1008.98
2018-07-24T12:51:32.349Z,1009
2018-07-24T12:52:41.760Z,1008.96
2018-07-24T12:53:51.416Z,1008.96
2018-07-24T12:55:00.571Z,1008.98
2018-07-24T12:56:10.291Z,1008.98
2018-07-24T12:57:19.439Z,1008.98
2018-07-24T12:58:28.853Z,1008.93
2018-07-24T12:59:38.535Z,1008.95
2018-07-24T13:00:47.423Z,1008.9
2018-07-24T13:01:56.846Z,1008.88
2018-07-24T13:03:06.271Z,1008.87
2018-07-24T13:04:15.823Z,1008.86
2018-07-24T13:05:24.781Z,1008.87
2018-07-24T13:06:34.190Z,1008.85
2018-07-24T13:07:43.606Z,1008.87
2018-07-24T13:08:53.023Z,1008.84
2018-07-24T13:10:02.218Z,1008.82
2018-07-24T13:11:12.619Z,1008.85
2018-07-24T13:12:21.767Z,1008.81
2018-07-24T13:13:31.167Z,1008.83
2018-07-24T13:14:40.315Z,1008.83
2018-07-24T13:15:49.716Z,1008.83
2018-07-24T13:16:58.617Z,1008.84
2018-07-24T13:18:07.768Z,1008.82
2018-07-24T13:19:17.179Z,1008.78
2018-07-24T13:20:26.413Z,1008.78
2018-07-24T13:21:35.581Z,1008.78
2018-07-24T13:22:44.727Z,1008.76
2018-07-24T13:23:53.929Z,1008.76
2018-07-24T13:25:03.366Z,1008.76
2018-07-24T13:26:12.518Z,1008.74
2018-07-24T13:27:22.289Z,1008.75
2018-07-24T13:28:32.268Z,1008.72
2018-07-24T13:29:41.947Z,1008.71
2018-07-24T13:30:51.356Z,1008.75
2018-07-24T13:32:01.102Z,1008.72
2018-07-24T13:33:10.479Z,1008.67
2018-07-24T13:34:19.889Z,1008.66
2018-07-24T13:35:28.780Z,1008.6
2018-07-24T13:36:38.190Z,1008.64
2018-07-24T13:37:47.607Z,1008.58
2018-07-24T13:38:56.513Z,1008.55
2018-07-24T13:40:06.206Z,1008.57
2018-07-24T13:41:15.623Z,1008.6
2018-07-24T13:42:25.292Z,1008.57
2018-07-24T13:43:34.694Z,1008.6
2018-07-24T13:44:44.097Z,1008.61
2018-07-24T13:45:53.594Z,1008.63
2018-07-24T13:47:03.437Z,1008.63
2018-07-24T13:48:12.861Z,1008.59
2018-07-24T13:49:22.791Z,1008.59
2018-07-24T13:50:31.956Z,1008.55
2018-07-24T13:51:40.864Z,1008.54
2018-07-24T13:52:50.564Z,1008.52
2018-07-24T13:53:59.781Z,1008.49
2018-07-24T13:55:09.211Z,1008.55
2018-07-24T13:56:18.114Z,1008.51
2018-07-24T13:57:27.263Z,1008.51
2018-07-24T13:58:36.665Z,1008.51
2018-07-24T13:59:45.827Z,1008.53
2018-07-24T14:00:55.262Z,1008.52
2018-07-24T14:02:03.930Z,1008.54
2018-07-24T14:03:13.093Z,1008.53